sensor_id;sensor_type;location;lat;lon;timestamp;P1;durP1;ratioP1;P2;durP2;ratioP2
29422;SDS011;16399;51.686;8.684;2023-07-08T00:01:14;6.62;;;1.70;;
29422;SDS011;16399;51.686;8.684;2023-07-08T00:04:18;3.50;;;1.70;;
29422;SDS011;16399;51.686;8.684;2023-07-08T00:07:20;4.55;;;1.87;;
29422;SDS011;16399;51.686;8.684;2023-07-08T00:10:24;4.78;;;2.10;;
29422;SDS011;16399;51.686;8.684;2023-07-08T00:13:28;9.40;;;2.17;;
29422;SDS011;16399;51.686;8.684;2023-07-08T00:16:30;4.53;;;1.90;;
29422;SDS011;16399;51.686;8.684;2023-07-08T00:19:32;7.40;;;1.90;;
29422;SDS011;16399;51.686;8.684;2023-07-08T00:22:35;4.47;;;2.00;;
29422;SDS011;16399;51.686;8.684;2023-07-08T00:25:39;4.42;;;1.90;;
29422;SDS011;16399;51.686;8.684;2023-07-08T00:28:42;5.12;;;1.82;;
29422;SDS011;16399;51.686;8.684;2023-07-08T00:31:44;5.95;;;2.08;;
29422;SDS011;16399;51.686;8.684;2023-07-08T00:34:46;5.30;;;1.90;;
29422;SDS011;16399;51.686;8.684;2023-07-08T00:37:50;4.37;;;2.00;;
29422;SDS011;16399;51.686;8.684;2023-07-08T00:41:04;4.75;;;1.95;;
29422;SDS011;16399;51.686;8.684;2023-07-08T00:44:04;4.15;;;1.85;;
29422;SDS011;16399;51.686;8.684;2023-07-08T00:47:13;4.62;;;2.35;;
29422;SDS011;16399;51.686;8.684;2023-07-08T00:50:11;4.95;;;2.10;;
29422;SDS011;16399;51.686;8.684;2023-07-08T00:53:36;6.00;;;2.08;;
29422;SDS011;16399;51.686;8.684;2023-07-08T00:56:31;6.75;;;2.12;;
29422;SDS011;16399;51.686;8.684;2023-07-08T00:59:45;4.33;;;1.80;;
29422;SDS011;16399;51.686;8.684;2023-07-08T01:02:46;7.87;;;1.92;;
29422;SDS011;16399;51.686;8.684;2023-07-08T01:05:53;5.12;;;1.80;;
29422;SDS011;16399;51.686;8.684;2023-07-08T01:09:00;9.58;;;2.45;;
29422;SDS011;16399;51.686;8.684;2023-07-08T01:12:06;4.87;;;1.92;;
29422;SDS011;16399;51.686;8.684;2023-07-08T01:15:10;4.67;;;2.27;;
29422;SDS011;16399;51.686;8.684;2023-07-08T01:18:15;5.90;;;1.72;;
29422;SDS011;16399;51.686;8.684;2023-07-08T01:21:35;4.78;;;2.10;;
29422;SDS011;16399;51.686;8.684;2023-07-08T01:24:40;4.55;;;2.08;;
29422;SDS011;16399;51.686;8.684;2023-07-08T01:27:45;5.15;;;2.15;;
29422;SDS011;16399;51.686;8.684;2023-07-08T01:30:49;4.42;;;1.85;;
29422;SDS011;16399;51.686;8.684;2023-07-08T01:33:51;5.67;;;2.10;;
29422;SDS011;16399;51.686;8.684;2023-07-08T01:36:55;5.30;;;1.82;;
29422;SDS011;16399;51.686;8.684;2023-07-08T01:43:22;5.00;;;2.02;;
29422;SDS011;16399;51.686;8.684;2023-07-08T01:46:25;4.30;;;1.87;;
29422;SDS011;16399;51.686;8.684;2023-07-08T01:49:28;13.98;;;2.45;;
29422;SDS011;16399;51.686;8.684;2023-07-08T01:52:32;8.03;;;2.47;;
29422;SDS011;16399;51.686;8.684;2023-07-08T01:55:34;6.58;;;2.12;;
29422;SDS011;16399;51.686;8.684;2023-07-08T01:58:37;5.97;;;2.17;;
29422;SDS011;16399;51.686;8.684;2023-07-08T02:01:39;3.72;;;1.60;;
29422;SDS011;16399;51.686;8.684;2023-07-08T02:04:41;8.08;;;2.00;;
29422;SDS011;16399;51.686;8.684;2023-07-08T02:07:43;4.08;;;2.10;;
29422;SDS011;16399;51.686;8.684;2023-07-08T02:10:54;5.97;;;1.95;;
29422;SDS011;16399;51.686;8.684;2023-07-08T02:13:58;7.78;;;2.20;;
29422;SDS011;16399;51.686;8.684;2023-07-08T02:17:01;5.28;;;2.30;;
29422;SDS011;16399;51.686;8.684;2023-07-08T02:20:05;6.37;;;2.17;;
29422;SDS011;16399;51.686;8.684;2023-07-08T02:23:09;4.90;;;1.87;;
29422;SDS011;16399;51.686;8.684;2023-07-08T02:26:11;4.75;;;2.15;;
29422;SDS011;16399;51.686;8.684;2023-07-08T02:29:13;3.77;;;1.90;;
29422;SDS011;16399;51.686;8.684;2023-07-08T02:32:16;6.17;;;2.12;;
29422;SDS011;16399;51.686;8.684;2023-07-08T02:35:19;4.87;;;2.17;;
29422;SDS011;16399;51.686;8.684;2023-07-08T02:38:21;4.70;;;2.10;;
29422;SDS011;16399;51.686;8.684;2023-07-08T02:41:23;7.15;;;2.10;;
29422;SDS011;16399;51.686;8.684;2023-07-08T02:44:25;4.55;;;1.92;;
29422;SDS011;16399;51.686;8.684;2023-07-08T02:47:28;5.95;;;2.25;;
29422;SDS011;16399;51.686;8.684;2023-07-08T02:50:30;5.37;;;2.05;;
29422;SDS011;16399;51.686;8.684;2023-07-08T02:53:32;4.15;;;2.10;;
29422;SDS011;16399;51.686;8.684;2023-07-08T02:56:35;4.15;;;2.25;;
29422;SDS011;16399;51.686;8.684;2023-07-08T02:59:37;5.50;;;2.17;;
29422;SDS011;16399;51.686;8.684;2023-07-08T03:02:39;4.55;;;2.37;;
29422;SDS011;16399;51.686;8.684;2023-07-08T03:05:42;5.12;;;2.10;;
29422;SDS011;16399;51.686;8.684;2023-07-08T03:08:44;5.03;;;1.90;;
29422;SDS011;16399;51.686;8.684;2023-07-08T03:11:46;4.47;;;2.12;;
29422;SDS011;16399;51.686;8.684;2023-07-08T03:14:49;6.75;;;1.92;;
29422;SDS011;16399;51.686;8.684;2023-07-08T03:17:51;4.50;;;2.00;;
29422;SDS011;16399;51.686;8.684;2023-07-08T03:20:55;4.03;;;1.95;;
29422;SDS011;16399;51.686;8.684;2023-07-08T03:23:58;7.00;;;1.98;;
29422;SDS011;16399;51.686;8.684;2023-07-08T03:27:00;7.40;;;2.55;;
29422;SDS011;16399;51.686;8.684;2023-07-08T03:30:05;4.70;;;2.10;;
29422;SDS011;16399;51.686;8.684;2023-07-08T03:33:08;5.72;;;1.80;;
29422;SDS011;16399;51.686;8.684;2023-07-08T03:36:15;6.03;;;1.90;;
29422;SDS011;16399;51.686;8.684;2023-07-08T03:39:25;4.12;;;1.90;;
29422;SDS011;16399;51.686;8.684;2023-07-08T03:42:27;6.35;;;2.10;;
29422;SDS011;16399;51.686;8.684;2023-07-08T03:45:29;4.20;;;2.00;;
29422;SDS011;16399;51.686;8.684;2023-07-08T03:48:31;5.65;;;2.10;;
29422;SDS011;16399;51.686;8.684;2023-07-08T03:51:34;6.58;;;2.02;;
29422;SDS011;16399;51.686;8.684;2023-07-08T03:54:38;6.22;;;2.02;;
29422;SDS011;16399;51.686;8.684;2023-07-08T03:57:40;4.53;;;1.92;;
29422;SDS011;16399;51.686;8.684;2023-07-08T04:00:43;5.47;;;1.95;;
29422;SDS011;16399;51.686;8.684;2023-07-08T04:03:45;4.58;;;2.10;;
29422;SDS011;16399;51.686;8.684;2023-07-08T04:06:48;5.90;;;2.15;;
29422;SDS011;16399;51.686;8.684;2023-07-08T04:09:52;4.37;;;2.02;;
29422;SDS011;16399;51.686;8.684;2023-07-08T04:12:54;3.45;;;1.65;;
29422;SDS011;16399;51.686;8.684;2023-07-08T04:15:58;7.30;;;1.82;;
29422;SDS011;16399;51.686;8.684;2023-07-08T04:19:02;3.75;;;2.00;;
29422;SDS011;16399;51.686;8.684;2023-07-08T04:22:05;4.37;;;2.00;;
29422;SDS011;16399;51.686;8.684;2023-07-08T04:25:07;3.70;;;1.77;;
29422;SDS011;16399;51.686;8.684;2023-07-08T04:28:11;4.43;;;1.73;;
29422;SDS011;16399;51.686;8.684;2023-07-08T04:31:13;6.30;;;2.50;;
29422;SDS011;16399;51.686;8.684;2023-07-08T04:34:16;4.10;;;2.05;;
29422;SDS011;16399;51.686;8.684;2023-07-08T04:37:19;5.28;;;2.15;;
29422;SDS011;16399;51.686;8.684;2023-07-08T04:40:21;5.00;;;2.12;;
29422;SDS011;16399;51.686;8.684;2023-07-08T04:43:23;4.83;;;2.30;;
29422;SDS011;16399;51.686;8.684;2023-07-08T04:46:37;4.28;;;1.90;;
29422;SDS011;16399;51.686;8.684;2023-07-08T04:49:37;4.22;;;2.05;;
29422;SDS011;16399;51.686;8.684;2023-07-08T04:52:41;8.30;;;1.92;;
29422;SDS011;16399;51.686;8.684;2023-07-08T04:55:45;5.22;;;1.90;;
29422;SDS011;16399;51.686;8.684;2023-07-08T04:58:55;4.47;;;1.75;;
29422;SDS011;16399;51.686;8.684;2023-07-08T05:01:57;4.70;;;1.90;;
29422;SDS011;16399;51.686;8.684;2023-07-08T05:04:59;4.92;;;2.40;;
29422;SDS011;16399;51.686;8.684;2023-07-08T05:08:02;4.87;;;2.10;;
29422;SDS011;16399;51.686;8.684;2023-07-08T05:11:05;4.25;;;2.02;;
29422;SDS011;16399;51.686;8.684;2023-07-08T05:14:07;4.10;;;1.85;;
29422;SDS011;16399;51.686;8.684;2023-07-08T05:17:09;4.58;;;2.08;;
29422;SDS011;16399;51.686;8.684;2023-07-08T05:20:13;4.65;;;2.12;;
29422;SDS011;16399;51.686;8.684;2023-07-08T05:23:16;9.18;;;2.47;;
29422;SDS011;16399;51.686;8.684;2023-07-08T05:26:18;4.40;;;2.15;;
29422;SDS011;16399;51.686;8.684;2023-07-08T05:29:21;5.25;;;1.92;;
29422;SDS011;16399;51.686;8.684;2023-07-08T05:32:23;8.33;;;2.15;;
29422;SDS011;16399;51.686;8.684;2023-07-08T05:35:26;3.98;;;1.92;;
29422;SDS011;16399;51.686;8.684;2023-07-08T05:38:29;3.47;;;1.80;;
29422;SDS011;16399;51.686;8.684;2023-07-08T05:41:31;4.75;;;2.10;;
29422;SDS011;16399;51.686;8.684;2023-07-08T05:44:33;4.28;;;1.90;;
29422;SDS011;16399;51.686;8.684;2023-07-08T05:47:37;4.95;;;2.10;;
29422;SDS011;16399;51.686;8.684;2023-07-08T05:50:39;4.78;;;2.30;;
29422;SDS011;16399;51.686;8.684;2023-07-08T05:53:42;5.40;;;2.12;;
29422;SDS011;16399;51.686;8.684;2023-07-08T05:56:44;4.62;;;1.72;;
29422;SDS011;16399;51.686;8.684;2023-07-08T05:59:47;5.75;;;2.20;;
29422;SDS011;16399;51.686;8.684;2023-07-08T06:02:51;5.25;;;2.02;;
29422;SDS011;16399;51.686;8.684;2023-07-08T06:05:53;4.50;;;2.17;;
29422;SDS011;16399;51.686;8.684;2023-07-08T06:08:56;4.22;;;2.20;;
29422;SDS011;16399;51.686;8.684;2023-07-08T06:11:58;6.67;;;2.37;;
29422;SDS011;16399;51.686;8.684;2023-07-08T06:15:01;6.00;;;2.27;;
29422;SDS011;16399;51.686;8.684;2023-07-08T06:18:03;5.42;;;2.50;;
29422;SDS011;16399;51.686;8.684;2023-07-08T06:21:05;4.55;;;2.00;;
29422;SDS011;16399;51.686;8.684;2023-07-08T06:24:08;3.52;;;2.00;;
29422;SDS011;16399;51.686;8.684;2023-07-08T06:27:11;5.72;;;2.17;;
29422;SDS011;16399;51.686;8.684;2023-07-08T06:30:13;6.83;;;2.12;;
29422;SDS011;16399;51.686;8.684;2023-07-08T06:33:15;5.30;;;2.27;;
29422;SDS011;16399;51.686;8.684;2023-07-08T06:36:18;5.70;;;2.47;;
29422;SDS011;16399;51.686;8.684;2023-07-08T06:39:20;4.45;;;2.37;;
29422;SDS011;16399;51.686;8.684;2023-07-08T06:42:22;5.62;;;2.30;;
29422;SDS011;16399;51.686;8.684;2023-07-08T06:45:25;7.90;;;2.45;;
29422;SDS011;16399;51.686;8.684;2023-07-08T06:48:27;8.68;;;2.25;;
29422;SDS011;16399;51.686;8.684;2023-07-08T06:51:29;4.75;;;2.10;;
29422;SDS011;16399;51.686;8.684;2023-07-08T06:54:32;5.72;;;2.25;;
29422;SDS011;16399;51.686;8.684;2023-07-08T06:57:34;6.42;;;2.37;;
29422;SDS011;16399;51.686;8.684;2023-07-08T07:00:41;5.17;;;2.50;;
29422;SDS011;16399;51.686;8.684;2023-07-08T07:03:43;5.42;;;2.27;;
29422;SDS011;16399;51.686;8.684;2023-07-08T07:06:45;5.15;;;2.47;;
29422;SDS011;16399;51.686;8.684;2023-07-08T07:09:48;3.80;;;2.10;;
29422;SDS011;16399;51.686;8.684;2023-07-08T07:12:50;3.80;;;2.15;;
29422;SDS011;16399;51.686;8.684;2023-07-08T07:15:52;5.22;;;2.47;;
29422;SDS011;16399;51.686;8.684;2023-07-08T07:18:55;5.65;;;2.27;;
29422;SDS011;16399;51.686;8.684;2023-07-08T07:21:57;5.60;;;2.33;;
29422;SDS011;16399;51.686;8.684;2023-07-08T07:24:59;7.65;;;2.42;;
29422;SDS011;16399;51.686;8.684;2023-07-08T07:28:02;4.67;;;2.35;;
29422;SDS011;16399;51.686;8.684;2023-07-08T07:31:05;6.35;;;2.70;;
29422;SDS011;16399;51.686;8.684;2023-07-08T07:34:08;6.83;;;2.25;;
29422;SDS011;16399;51.686;8.684;2023-07-08T07:37:12;7.00;;;2.20;;
29422;SDS011;16399;51.686;8.684;2023-07-08T07:40:16;5.58;;;2.75;;
29422;SDS011;16399;51.686;8.684;2023-07-08T07:43:19;4.90;;;2.52;;
29422;SDS011;16399;51.686;8.684;2023-07-08T07:46:21;5.65;;;2.70;;
29422;SDS011;16399;51.686;8.684;2023-07-08T07:49:23;6.05;;;2.47;;
29422;SDS011;16399;51.686;8.684;2023-07-08T07:52:26;5.70;;;2.67;;
29422;SDS011;16399;51.686;8.684;2023-07-08T07:55:28;5.17;;;2.22;;
29422;SDS011;16399;51.686;8.684;2023-07-08T07:58:30;4.83;;;2.47;;
29422;SDS011;16399;51.686;8.684;2023-07-08T08:01:33;6.35;;;2.60;;
29422;SDS011;16399;51.686;8.684;2023-07-08T08:04:36;5.40;;;2.58;;
29422;SDS011;16399;51.686;8.684;2023-07-08T08:07:38;5.45;;;2.45;;
29422;SDS011;16399;51.686;8.684;2023-07-08T08:10:44;4.55;;;2.62;;
29422;SDS011;16399;51.686;8.684;2023-07-08T08:13:46;7.50;;;2.47;;
29422;SDS011;16399;51.686;8.684;2023-07-08T08:16:49;4.45;;;2.47;;
29422;SDS011;16399;51.686;8.684;2023-07-08T08:19:51;5.33;;;2.75;;
29422;SDS011;16399;51.686;8.684;2023-07-08T08:22:53;7.05;;;2.30;;
29422;SDS011;16399;51.686;8.684;2023-07-08T08:25:56;5.75;;;2.42;;
29422;SDS011;16399;51.686;8.684;2023-07-08T08:28:58;5.03;;;2.70;;
29422;SDS011;16399;51.686;8.684;2023-07-08T08:32:00;5.42;;;2.58;;
29422;SDS011;16399;51.686;8.684;2023-07-08T08:35:03;7.20;;;2.75;;
29422;SDS011;16399;51.686;8.684;2023-07-08T08:38:06;4.40;;;2.50;;
29422;SDS011;16399;51.686;8.684;2023-07-08T08:41:18;8.68;;;2.83;;
29422;SDS011;16399;51.686;8.684;2023-07-08T08:44:25;4.25;;;2.60;;
29422;SDS011;16399;51.686;8.684;2023-07-08T08:50:44;4.95;;;2.60;;
29422;SDS011;16399;51.686;8.684;2023-07-08T08:53:47;9.48;;;2.60;;
29422;SDS011;16399;51.686;8.684;2023-07-08T08:57:00;7.95;;;3.08;;
29422;SDS011;16399;51.686;8.684;2023-07-08T09:00:25;4.87;;;2.62;;
29422;SDS011;16399;51.686;8.684;2023-07-08T09:06:46;4.55;;;2.87;;
29422;SDS011;16399;51.686;8.684;2023-07-08T09:13:18;4.85;;;3.02;;
29422;SDS011;16399;51.686;8.684;2023-07-08T09:23:26;5.58;;;3.17;;
29422;SDS011;16399;51.686;8.684;2023-07-08T09:26:30;6.85;;;3.65;;
29422;SDS011;16399;51.686;8.684;2023-07-08T09:29:35;7.30;;;3.20;;
29422;SDS011;16399;51.686;8.684;2023-07-08T09:32:37;5.25;;;3.20;;
29422;SDS011;16399;51.686;8.684;2023-07-08T09:35:40;6.42;;;3.42;;
29422;SDS011;16399;51.686;8.684;2023-07-08T09:38:50;5.12;;;2.77;;
29422;SDS011;16399;51.686;8.684;2023-07-08T09:41:50;9.10;;;3.25;;
29422;SDS011;16399;51.686;8.684;2023-07-08T09:44:57;6.95;;;3.50;;
29422;SDS011;16399;51.686;8.684;2023-07-08T09:48:02;8.10;;;3.30;;
29422;SDS011;16399;51.686;8.684;2023-07-08T09:51:04;8.20;;;3.20;;
29422;SDS011;16399;51.686;8.684;2023-07-08T09:54:08;4.72;;;3.00;;
29422;SDS011;16399;51.686;8.684;2023-07-08T09:57:18;7.12;;;3.30;;
29422;SDS011;16399;51.686;8.684;2023-07-08T10:00:30;5.70;;;3.65;;
29422;SDS011;16399;51.686;8.684;2023-07-08T10:03:36;8.93;;;3.80;;
29422;SDS011;16399;51.686;8.684;2023-07-08T10:06:40;6.90;;;3.50;;
29422;SDS011;16399;51.686;8.684;2023-07-08T10:09:47;5.47;;;3.20;;
29422;SDS011;16399;51.686;8.684;2023-07-08T10:12:55;6.60;;;3.17;;
29422;SDS011;16399;51.686;8.684;2023-07-08T10:16:06;4.72;;;3.15;;
29422;SDS011;16399;51.686;8.684;2023-07-08T10:19:09;6.47;;;3.52;;
29422;SDS011;16399;51.686;8.684;2023-07-08T10:25:20;9.58;;;3.47;;
29422;SDS011;16399;51.686;8.684;2023-07-08T10:28:45;5.25;;;3.37;;
29422;SDS011;16399;51.686;8.684;2023-07-08T10:31:58;10.32;;;4.20;;
29422;SDS011;16399;51.686;8.684;2023-07-08T10:35:03;5.37;;;3.58;;
29422;SDS011;16399;51.686;8.684;2023-07-08T10:38:14;6.45;;;3.42;;
29422;SDS011;16399;51.686;8.684;2023-07-08T10:41:39;9.23;;;3.55;;
29422;SDS011;16399;51.686;8.684;2023-07-08T10:45:04;6.03;;;3.30;;
29422;SDS011;16399;51.686;8.684;2023-07-08T10:48:16;8.60;;;3.50;;
29422;SDS011;16399;51.686;8.684;2023-07-08T10:51:39;6.90;;;3.27;;
29422;SDS011;16399;51.686;8.684;2023-07-08T10:54:46;6.67;;;3.90;;
29422;SDS011;16399;51.686;8.684;2023-07-08T10:58:05;5.05;;;3.33;;
29422;SDS011;16399;51.686;8.684;2023-07-08T11:01:30;5.97;;;3.75;;
29422;SDS011;16399;51.686;8.684;2023-07-08T11:04:42;7.60;;;3.70;;
29422;SDS011;16399;51.686;8.684;2023-07-08T11:07:52;8.00;;;3.77;;
29422;SDS011;16399;51.686;8.684;2023-07-08T11:10:58;6.40;;;3.50;;
29422;SDS011;16399;51.686;8.684;2023-07-08T11:14:18;5.08;;;3.27;;
29422;SDS011;16399;51.686;8.684;2023-07-08T11:17:33;6.50;;;3.45;;
29422;SDS011;16399;51.686;8.684;2023-07-08T11:27:24;8.30;;;3.50;;
29422;SDS011;16399;51.686;8.684;2023-07-08T11:30:30;7.67;;;4.05;;
29422;SDS011;16399;51.686;8.684;2023-07-08T11:33:36;9.85;;;6.37;;
29422;SDS011;16399;51.686;8.684;2023-07-08T11:36:40;6.45;;;4.20;;
29422;SDS011;16399;51.686;8.684;2023-07-08T11:42:50;8.08;;;3.95;;
29422;SDS011;16399;51.686;8.684;2023-07-08T11:45:55;6.87;;;3.65;;
29422;SDS011;16399;51.686;8.684;2023-07-08T11:49:02;5.72;;;3.45;;
29422;SDS011;16399;51.686;8.684;2023-07-08T11:52:12;5.72;;;3.62;;
29422;SDS011;16399;51.686;8.684;2023-07-08T11:55:20;8.58;;;3.72;;
29422;SDS011;16399;51.686;8.684;2023-07-08T11:58:21;8.13;;;4.40;;
29422;SDS011;16399;51.686;8.684;2023-07-08T12:01:27;6.40;;;4.00;;
29422;SDS011;16399;51.686;8.684;2023-07-08T12:04:32;7.15;;;4.17;;
29422;SDS011;16399;51.686;8.684;2023-07-08T12:07:37;5.92;;;3.85;;
29422;SDS011;16399;51.686;8.684;2023-07-08T12:10:51;5.80;;;3.83;;
29422;SDS011;16399;51.686;8.684;2023-07-08T12:13:55;8.75;;;4.40;;
29422;SDS011;16399;51.686;8.684;2023-07-08T12:16:59;6.33;;;4.25;;
29422;SDS011;16399;51.686;8.684;2023-07-08T12:20:02;6.05;;;3.70;;
29422;SDS011;16399;51.686;8.684;2023-07-08T12:23:15;7.42;;;3.70;;
29422;SDS011;16399;51.686;8.684;2023-07-08T12:26:15;6.90;;;3.77;;
29422;SDS011;16399;51.686;8.684;2023-07-08T12:29:17;6.87;;;4.03;;
29422;SDS011;16399;51.686;8.684;2023-07-08T12:32:19;6.80;;;3.98;;
29422;SDS011;16399;51.686;8.684;2023-07-08T12:38:41;6.78;;;4.08;;
29422;SDS011;16399;51.686;8.684;2023-07-08T12:41:45;6.78;;;4.12;;
29422;SDS011;16399;51.686;8.684;2023-07-08T12:44:49;8.60;;;3.95;;
29422;SDS011;16399;51.686;8.684;2023-07-08T12:47:51;8.35;;;3.65;;
29422;SDS011;16399;51.686;8.684;2023-07-08T12:50:54;7.15;;;4.22;;
29422;SDS011;16399;51.686;8.684;2023-07-08T12:53:56;8.60;;;3.85;;
29422;SDS011;16399;51.686;8.684;2023-07-08T12:56:59;9.45;;;4.17;;
29422;SDS011;16399;51.686;8.684;2023-07-08T13:00:01;7.33;;;3.92;;
29422;SDS011;16399;51.686;8.684;2023-07-08T13:03:11;7.03;;;4.20;;
29422;SDS011;16399;51.686;8.684;2023-07-08T13:06:16;8.50;;;4.42;;
29422;SDS011;16399;51.686;8.684;2023-07-08T13:09:28;6.65;;;4.08;;
29422;SDS011;16399;51.686;8.684;2023-07-08T13:12:40;9.83;;;4.28;;
29422;SDS011;16399;51.686;8.684;2023-07-08T13:15:43;8.88;;;4.12;;
29422;SDS011;16399;51.686;8.684;2023-07-08T13:18:46;7.20;;;4.03;;
29422;SDS011;16399;51.686;8.684;2023-07-08T13:21:49;6.92;;;4.30;;
29422;SDS011;16399;51.686;8.684;2023-07-08T13:25:01;8.20;;;4.95;;
29422;SDS011;16399;51.686;8.684;2023-07-08T13:28:17;8.90;;;4.78;;
29422;SDS011;16399;51.686;8.684;2023-07-08T13:31:34;8.05;;;4.33;;
29422;SDS011;16399;51.686;8.684;2023-07-08T13:34:38;7.03;;;4.17;;
29422;SDS011;16399;51.686;8.684;2023-07-08T13:37:41;8.60;;;4.50;;
29422;SDS011;16399;51.686;8.684;2023-07-08T13:40:47;13.35;;;4.50;;
29422;SDS011;16399;51.686;8.684;2023-07-08T13:43:51;8.45;;;4.65;;
29422;SDS011;16399;51.686;8.684;2023-07-08T13:46:55;8.70;;;4.47;;
29422;SDS011;16399;51.686;8.684;2023-07-08T13:50:00;9.58;;;6.60;;
29422;SDS011;16399;51.686;8.684;2023-07-08T13:53:14;6.90;;;4.25;;
29422;SDS011;16399;51.686;8.684;2023-07-08T13:59:22;7.37;;;4.08;;
29422;SDS011;16399;51.686;8.684;2023-07-08T14:02:27;7.67;;;4.35;;
29422;SDS011;16399;51.686;8.684;2023-07-08T14:05:31;6.72;;;3.90;;
29422;SDS011;16399;51.686;8.684;2023-07-08T14:08:33;6.90;;;3.87;;
29422;SDS011;16399;51.686;8.684;2023-07-08T14:11:36;10.10;;;4.20;;
29422;SDS011;16399;51.686;8.684;2023-07-08T14:14:38;6.42;;;4.25;;
29422;SDS011;16399;51.686;8.684;2023-07-08T14:17:41;8.55;;;4.62;;
29422;SDS011;16399;51.686;8.684;2023-07-08T14:20:43;8.25;;;4.40;;
29422;SDS011;16399;51.686;8.684;2023-07-08T14:23:45;9.35;;;4.75;;
29422;SDS011;16399;51.686;8.684;2023-07-08T14:26:48;8.15;;;4.20;;
29422;SDS011;16399;51.686;8.684;2023-07-08T14:29:50;7.67;;;3.92;;
29422;SDS011;16399;51.686;8.684;2023-07-08T14:32:53;6.93;;;4.27;;
29422;SDS011;16399;51.686;8.684;2023-07-08T14:35:55;7.58;;;4.12;;
29422;SDS011;16399;51.686;8.684;2023-07-08T14:38:58;6.22;;;3.98;;
29422;SDS011;16399;51.686;8.684;2023-07-08T14:42:01;6.45;;;3.80;;
29422;SDS011;16399;51.686;8.684;2023-07-08T14:45:04;6.80;;;3.85;;
29422;SDS011;16399;51.686;8.684;2023-07-08T14:48:11;6.55;;;4.17;;
29422;SDS011;16399;51.686;8.684;2023-07-08T14:51:14;9.83;;;4.53;;
29422;SDS011;16399;51.686;8.684;2023-07-08T14:54:17;8.00;;;4.33;;
29422;SDS011;16399;51.686;8.684;2023-07-08T15:00:23;6.78;;;3.92;;
29422;SDS011;16399;51.686;8.684;2023-07-08T15:03:25;6.75;;;4.28;;
29422;SDS011;16399;51.686;8.684;2023-07-08T15:06:28;8.70;;;4.55;;
29422;SDS011;16399;51.686;8.684;2023-07-08T15:09:30;6.87;;;4.37;;
29422;SDS011;16399;51.686;8.684;2023-07-08T15:12:33;5.97;;;3.80;;
29422;SDS011;16399;51.686;8.684;2023-07-08T15:15:35;6.42;;;3.77;;
29422;SDS011;16399;51.686;8.684;2023-07-08T15:18:38;8.65;;;4.28;;
29422;SDS011;16399;51.686;8.684;2023-07-08T15:21:40;9.63;;;4.60;;
29422;SDS011;16399;51.686;8.684;2023-07-08T15:24:42;7.42;;;3.75;;
29422;SDS011;16399;51.686;8.684;2023-07-08T15:27:50;10.05;;;4.78;;
29422;SDS011;16399;51.686;8.684;2023-07-08T15:30:55;8.18;;;4.40;;
29422;SDS011;16399;51.686;8.684;2023-07-08T15:33:58;8.18;;;4.45;;
29422;SDS011;16399;51.686;8.684;2023-07-08T15:37:00;6.10;;;4.00;;
29422;SDS011;16399;51.686;8.684;2023-07-08T15:40:03;6.28;;;4.10;;
29422;SDS011;16399;51.686;8.684;2023-07-08T15:43:09;7.47;;;4.42;;
29422;SDS011;16399;51.686;8.684;2023-07-08T15:46:12;7.20;;;4.47;;
29422;SDS011;16399;51.686;8.684;2023-07-08T15:49:19;9.20;;;4.45;;
29422;SDS011;16399;51.686;8.684;2023-07-08T15:52:31;10.23;;;4.53;;
29422;SDS011;16399;51.686;8.684;2023-07-08T15:55:34;7.50;;;4.58;;
29422;SDS011;16399;51.686;8.684;2023-07-08T15:58:41;9.80;;;4.62;;
29422;SDS011;16399;51.686;8.684;2023-07-08T16:01:45;8.13;;;3.92;;
29422;SDS011;16399;51.686;8.684;2023-07-08T16:04:48;8.75;;;4.58;;
29422;SDS011;16399;51.686;8.684;2023-07-08T16:07:51;6.28;;;4.10;;
29422;SDS011;16399;51.686;8.684;2023-07-08T16:14:00;6.90;;;3.77;;
29422;SDS011;16399;51.686;8.684;2023-07-08T16:17:07;6.85;;;4.22;;
29422;SDS011;16399;51.686;8.684;2023-07-08T16:20:18;5.72;;;3.85;;
29422;SDS011;16399;51.686;8.684;2023-07-08T16:23:22;7.80;;;3.72;;
29422;SDS011;16399;51.686;8.684;2023-07-08T16:26:25;7.70;;;3.55;;
29422;SDS011;16399;51.686;8.684;2023-07-08T16:29:27;7.55;;;4.28;;
29422;SDS011;16399;51.686;8.684;2023-07-08T16:32:29;8.48;;;4.25;;
29422;SDS011;16399;51.686;8.684;2023-07-08T16:35:32;6.80;;;3.95;;
29422;SDS011;16399;51.686;8.684;2023-07-08T16:38:34;7.37;;;4.17;;
29422;SDS011;16399;51.686;8.684;2023-07-08T16:41:36;9.38;;;5.00;;
29422;SDS011;16399;51.686;8.684;2023-07-08T16:44:39;6.97;;;4.03;;
29422;SDS011;16399;51.686;8.684;2023-07-08T16:47:42;9.05;;;4.65;;
29422;SDS011;16399;51.686;8.684;2023-07-08T16:50:46;7.00;;;4.62;;
29422;SDS011;16399;51.686;8.684;2023-07-08T16:53:48;7.50;;;3.80;;
29422;SDS011;16399;51.686;8.684;2023-07-08T16:56:52;12.10;;;4.17;;
29422;SDS011;16399;51.686;8.684;2023-07-08T16:59:54;6.22;;;3.92;;
29422;SDS011;16399;51.686;8.684;2023-07-08T17:02:56;7.75;;;4.45;;
29422;SDS011;16399;51.686;8.684;2023-07-08T17:05:59;7.90;;;4.17;;
29422;SDS011;16399;51.686;8.684;2023-07-08T17:09:01;6.40;;;3.58;;
29422;SDS011;16399;51.686;8.684;2023-07-08T17:12:06;13.32;;;8.03;;
29422;SDS011;16399;51.686;8.684;2023-07-08T17:15:09;10.30;;;5.10;;
29422;SDS011;16399;51.686;8.684;2023-07-08T17:18:17;8.75;;;4.92;;
29422;SDS011;16399;51.686;8.684;2023-07-08T17:21:18;9.13;;;4.33;;
29422;SDS011;16399;51.686;8.684;2023-07-08T17:24:20;9.78;;;4.40;;
29422;SDS011;16399;51.686;8.684;2023-07-08T17:27:23;8.25;;;4.30;;
29422;SDS011;16399;51.686;8.684;2023-07-08T17:30:25;8.40;;;4.53;;
29422;SDS011;16399;51.686;8.684;2023-07-08T17:33:27;10.75;;;6.97;;
29422;SDS011;16399;51.686;8.684;2023-07-08T17:36:31;12.10;;;7.22;;
29422;SDS011;16399;51.686;8.684;2023-07-08T17:39:35;10.13;;;5.35;;
29422;SDS011;16399;51.686;8.684;2023-07-08T17:42:37;12.55;;;4.72;;
29422;SDS011;16399;51.686;8.684;2023-07-08T17:45:40;7.90;;;5.08;;
29422;SDS011;16399;51.686;8.684;2023-07-08T17:48:47;7.22;;;4.70;;
29422;SDS011;16399;51.686;8.684;2023-07-08T17:51:50;6.78;;;4.65;;
29422;SDS011;16399;51.686;8.684;2023-07-08T17:54:53;8.15;;;4.65;;
29422;SDS011;16399;51.686;8.684;2023-07-08T17:57:55;7.95;;;4.42;;
29422;SDS011;16399;51.686;8.684;2023-07-08T18:00:57;9.95;;;4.58;;
29422;SDS011;16399;51.686;8.684;2023-07-08T18:04:00;7.90;;;4.33;;
29422;SDS011;16399;51.686;8.684;2023-07-08T18:07:02;8.95;;;4.28;;
29422;SDS011;16399;51.686;8.684;2023-07-08T18:10:05;8.30;;;3.90;;
29422;SDS011;16399;51.686;8.684;2023-07-08T18:13:13;8.85;;;4.90;;
29422;SDS011;16399;51.686;8.684;2023-07-08T18:16:21;7.33;;;4.50;;
29422;SDS011;16399;51.686;8.684;2023-07-08T18:19:24;8.10;;;4.67;;
29422;SDS011;16399;51.686;8.684;2023-07-08T18:22:26;9.23;;;4.10;;
29422;SDS011;16399;51.686;8.684;2023-07-08T18:25:29;7.10;;;4.17;;
29422;SDS011;16399;51.686;8.684;2023-07-08T18:28:35;7.53;;;4.00;;
29422;SDS011;16399;51.686;8.684;2023-07-08T18:31:37;9.35;;;4.78;;
29422;SDS011;16399;51.686;8.684;2023-07-08T18:37:43;7.70;;;4.30;;
29422;SDS011;16399;51.686;8.684;2023-07-08T18:40:46;11.03;;;4.80;;
29422;SDS011;16399;51.686;8.684;2023-07-08T18:43:48;7.33;;;4.35;;
29422;SDS011;16399;51.686;8.684;2023-07-08T18:46:51;7.78;;;4.58;;
29422;SDS011;16399;51.686;8.684;2023-07-08T18:49:54;7.37;;;3.75;;
29422;SDS011;16399;51.686;8.684;2023-07-08T18:52:56;8.43;;;4.45;;
29422;SDS011;16399;51.686;8.684;2023-07-08T18:55:59;6.60;;;4.20;;
29422;SDS011;16399;51.686;8.684;2023-07-08T18:59:01;9.28;;;4.08;;
29422;SDS011;16399;51.686;8.684;2023-07-08T19:02:04;11.22;;;4.53;;
29422;SDS011;16399;51.686;8.684;2023-07-08T19:05:17;10.63;;;5.25;;
29422;SDS011;16399;51.686;8.684;2023-07-08T19:08:22;6.33;;;3.92;;
29422;SDS011;16399;51.686;8.684;2023-07-08T19:11:24;9.10;;;3.77;;
29422;SDS011;16399;51.686;8.684;2023-07-08T19:14:29;10.23;;;4.45;;
29422;SDS011;16399;51.686;8.684;2023-07-08T19:17:32;7.28;;;4.50;;
29422;SDS011;16399;51.686;8.684;2023-07-08T19:20:39;8.60;;;4.65;;